Time;durP1;ratioP1;P1;durP2;ratioP2;P2;SDS_P1;SDS_P2;PMS_P1;PMS_P2;Temp;Humidity;BMP_temperature;BMP_pressure;BME280_temperature;BME280_humidity;BME280_pressure;Samples;Min_cycle;Max_cycle;Signal;HPM_P1;HPM_P2
2024/01/01 00:00:18;;;;;;;;;;;;;;;11.40;58.61;97959.17;67554;1282;1016484;-69
2024/01/01 00:03:43;;;;;;;;;;;;;;;11.44;58.32;97953.48;67529;1282;1016302;-70
2024/01/01 00:06:47;;;;;;;;;;;;;;;11.49;58.20;97950.28;67525;1282;1016210;-60
2024/01/01 00:09:49;;;;;;;;;;;;;;;11.52;58.21;97945.15;67574;1282;1016211;-60
2024/01/01 00:12:55;;;;;;;;;;;;;;;11.49;58.27;97943.43;67567;1282;1015864;-71
2024/01/01 00:15:58;;;;;;;;;;;;;;;11.45;58.39;97946.20;67560;1282;1016397;-60
2024/01/01 00:19:00;;;;;;;;;;;;;;;11.38;58.11;97949.72;67530;1282;1016237;-59
2024/01/01 00:22:03;;;;;;;;;;;;;;;11.22;58.69;97949.90;67523;1282;1016884;-65
2024/01/01 00:25:06;;;;;;;;;;;;;;;11.20;58.55;97950.63;67538;1282;1016452;-71
2024/01/01 00:28:09;;;;;;;;;;;;;;;11.15;58.57;97952.77;67524;1282;1016468;-66
2024/01/01 00:31:11;;;;;;;;;;;;;;;11.18;58.68;97952.98;67579;1282;1016578;-71
2024/01/01 00:34:14;;;;;;;;;;;;;;;11.26;58.18;97951.88;67593;1282;1016550;-60
2024/01/01 00:37:17;;;;;;;;;;;;;;;11.25;58.02;97945.32;67543;1282;1016370;-64
2024/01/01 00:40:20;;;;;;;;;;;;;;;11.27;58.06;97949.73;67568;1282;1016223;-61
2024/01/01 00:43:22;;;;;;;;;;;;;;;11.20;58.42;97954.29;67572;1282;1016321;-71
2024/01/01 00:46:25;;;;;;;;;;;;;;;11.13;58.35;97954.96;67511;1282;1016356;-65
2024/01/01 00:49:28;;;;;;;;;;;;;;;11.08;59.11;97961.52;67564;1282;1016794;-71
2024/01/01 00:52:31;;;;;;;;;;;;;;;11.19;58.69;97961.86;67538;1282;1016474;-60
2024/01/01 00:55:33;;;;;;;;;;;;;;;11.29;58.48;97964.84;67516;1282;1016069;-71
2024/01/01 00:58:36;;;;;;;;;;;;;;;11.33;58.28;97964.80;67568;1282;1018933;-67
2024/01/01 01:01:39;;;;;;;;;;;;;;;11.38;58.06;97968.62;67576;1282;1016543;-70
2024/01/01 01:04:45;;;;;;;;;;;;;;;11.40;58.15;97970.04;67552;1282;1016217;-60
2024/01/01 01:07:48;;;;;;;;;;;;;;;11.43;58.42;97968.44;67568;1282;1016481;-61
2024/01/01 01:10:51;;;;;;;;;;;;;;;11.50;58.19;97961.24;67570;1282;1016189;-60
2024/01/01 01:13:56;;;;;;;;;;;;;;;11.47;58.70;97956.91;67492;1282;1016497;-59
2024/01/01 01:16:58;;;;;;;;;;;;;;;11.50;58.41;97967.35;67584;1282;1016428;-60
2024/01/01 01:20:01;;;;;;;;;;;;;;;11.55;58.38;97973.80;67563;1282;1016369;-60
2024/01/01 01:23:04;;;;;;;;;;;;;;;11.66;58.06;97974.14;67529;1282;1016740;-64
2024/01/01 01:26:07;;;;;;;;;;;;;;;11.76;57.79;97963.96;67549;1282;1016517;-71
2024/01/01 01:29:10;;;;;;;;;;;;;;;11.92;57.41;97959.88;67520;1282;1018498;-67
2024/01/01 01:32:13;;;;;;;;;;;;;;;12.02;57.05;97959.98;67563;1282;1016473;-72
2024/01/01 01:35:15;;;;;;;;;;;;;;;12.11;56.59;97958.86;67530;1282;1016323;-67
2024/01/01 01:38:18;;;;;;;;;;;;;;;12.08;56.96;97958.98;67507;1282;1016540;-71
2024/01/01 01:41:22;;;;;;;;;;;;;;;12.08;56.87;97956.48;67556;1282;1016290;-66
2024/01/01 01:44:25;;;;;;;;;;;;;;;12.05;56.60;97956.23;67581;1282;1016440;-62
2024/01/01 01:47:27;;;;;;;;;;;;;;;11.95;56.97;97951.24;67541;1282;1016335;-62
2024/01/01 01:50:30;;;;;;;;;;;;;;;11.86;57.46;97948.20;67513;1282;1016459;-70
2024/01/01 01:53:33;;;;;;;;;;;;;;;12.03;56.62;97950.60;67552;1282;1016047;-59
2024/01/01 01:56:36;;;;;;;;;;;;;;;11.67;57.21;97946.74;67527;1282;1016059;-60
2024/01/01 01:59:38;;;;;;;;;;;;;;;11.40;57.94;97948.58;67538;1282;1016452;-65
2024/01/01 02:02:41;;;;;;;;;;;;;;;11.31;58.22;97946.06;67540;1282;1016519;-60
2024/01/01 02:05:44;;;;;;;;;;;;;;;11.32;57.74;97943.95;67515;1282;1015932;-71
2024/01/01 02:08:47;;;;;;;;;;;;;;;11.30;57.77;97941.74;67550;1282;1016618;-61
2024/01/01 02:11:50;;;;;;;;;;;;;;;11.40;57.36;97947.62;67562;1282;1016328;-65
2024/01/01 02:14:53;;;;;;;;;;;;;;;11.29;57.81;97944.13;67581;1282;1016019;-59
2024/01/01 02:17:55;;;;;;;;;;;;;;;11.11;58.59;97943.41;67537;1282;1016024;-65
2024/01/01 02:20:58;;;;;;;;;;;;;;;11.00;58.73;97940.81;67501;1282;1016125;-61
2024/01/01 02:24:01;;;;;;;;;;;;;;;10.73;59.38;97939.14;67563;1282;1016334;-66
2024/01/01 02:27:03;;;;;;;;;;;;;;;10.73;59.93;97940.91;67526;1282;1015913;-70
2024/01/01 02:30:10;;;;;;;;;;;;;;;10.71;59.55;97937.19;67496;1282;1016077;-59
2024/01/01 02:33:14;;;;;;;;;;;;;;;10.74;59.41;97936.06;67548;1282;1016277;-60
2024/01/01 02:36:17;;;;;;;;;;;;;;;10.78;58.54;97933.35;67561;1282;1016592;-62
2024/01/01 02:39:19;;;;;;;;;;;;;;;10.76;58.13;97930.69;67557;1282;1016447;-70
2024/01/01 02:42:22;;;;;;;;;;;;;;;10.71;58.54;97934.92;67537;1282;1016427;-60
2024/01/01 02:45:25;;;;;;;;;;;;;;;10.64;58.31;97933.69;67530;1282;1016255;-62
2024/01/01 02:48:28;;;;;;;;;;;;;;;10.47;58.36;97931.48;67566;1282;1016425;-71
2024/01/01 02:51:31;;;;;;;;;;;;;;;10.41;58.38;97926.70;67500;1282;1016451;-65
2024/01/01 02:54:34;;;;;;;;;;;;;;;10.22;58.90;97930.34;67503;1282;1016421;-70
2024/01/01 02:57:36;;;;;;;;;;;;;;;10.18;58.45;97930.91;67563;1282;1016457;-60
2024/01/01 03:00:39;;;;;;;;;;;;;;;10.10;58.58;97933.27;67532;1282;1018837;-60
2024/01/01 03:03:42;;;;;;;;;;;;;;;9.99;58.27;97936.22;67558;1282;1016378;-59
2024/01/01 03:06:44;;;;;;;;;;;;;;;10.00;57.98;97932.57;67525;1282;1016361;-60
2024/01/01 03:09:49;;;;;;;;;;;;;;;10.00;58.22;97933.13;67533;1282;1016316;-60
2024/01/01 03:12:52;;;;;;;;;;;;;;;9.97;58.37;97936.65;67565;1282;1016290;-61
2024/01/01 03:15:55;;;;;;;;;;;;;;;10.10;58.13;97932.55;67531;1282;1016352;-61
2024/01/01 03:18:57;;;;;;;;;;;;;;;10.14;57.95;97936.88;67495;1282;1016367;-71
2024/01/01 03:22:00;;;;;;;;;;;;;;;10.15;57.81;97943.75;67559;1282;1015774;-71
2024/01/01 03:25:03;;;;;;;;;;;;;;;10.10;58.16;97938.52;67549;1282;1016427;-60
2024/01/01 03:28:07;;;;;;;;;;;;;;;10.04;58.15;97936.71;67547;1282;1016472;-59
2024/01/01 03:31:09;;;;;;;;;;;;;;;10.09;58.79;97933.02;67544;1282;1015796;-72
2024/01/01 03:34:12;;;;;;;;;;;;;;;10.15;58.43;97927.69;67506;1282;1016812;-67
2024/01/01 03:37:15;;;;;;;;;;;;;;;10.16;58.46;97932.66;67568;1282;1016472;-60
2024/01/01 03:40:18;;;;;;;;;;;;;;;10.14;58.54;97932.28;67525;1282;1016516;-71
2024/01/01 03:43:21;;;;;;;;;;;;;;;10.09;58.76;97927.41;67532;1282;1016296;-59
2024/01/01 03:46:23;;;;;;;;;;;;;;;10.07;58.61;97921.83;67530;1282;1016374;-60
2024/01/01 03:49:26;;;;;;;;;;;;;;;10.11;58.81;97911.16;67520;1282;1016371;-61
2024/01/01 03:52:29;;;;;;;;;;;;;;;10.19;57.98;97910.95;67545;1282;1016919;-71
2024/01/01 03:55:31;;;;;;;;;;;;;;;10.14;57.75;97917.59;67565;1282;1016541;-72
2024/01/01 03:58:34;;;;;;;;;;;;;;;10.08;58.19;97911.60;67507;1282;1016443;-60
2024/01/01 04:01:37;;;;;;;;;;;;;;;10.18;58.29;97914.19;67566;1282;1016410;-71
2024/01/01 04:04:39;;;;;;;;;;;;;;;10.29;57.92;97912.15;67557;1282;1016045;-70
2024/01/01 04:07:42;;;;;;;;;;;;;;;10.30;57.45;97916.46;67505;1282;1016276;-67
2024/01/01 04:10:45;;;;;;;;;;;;;;;10.16;57.87;97921.30;67545;1282;1016066;-71
2024/01/01 04:13:47;;;;;;;;;;;;;;;10.20;57.93;97923.84;67543;1282;1016268;-60
2024/01/01 04:16:50;;;;;;;;;;;;;;;10.23;57.97;97922.05;67499;1282;1016473;-72
2024/01/01 04:19:53;;;;;;;;;;;;;;;10.25;57.74;97922.73;67494;1282;1016452;-67
2024/01/01 04:22:56;;;;;;;;;;;;;;;10.25;58.09;97917.86;67551;1282;1015910;-71
2024/01/01 04:25:59;;;;;;;;;;;;;;;10.27;58.20;97918.05;67529;1282;1015663;-71
2024/01/01 04:29:02;;;;;;;;;;;;;;;10.38;57.95;97919.36;67581;1282;1016475;-72
2024/01/01 04:32:04;;;;;;;;;;;;;;;10.38;57.52;97913.94;67574;1282;1015971;-60
2024/01/01 04:35:07;;;;;;;;;;;;;;;10.30;57.92;97911.05;67510;1282;1017766;-71
2024/01/01 04:38:10;;;;;;;;;;;;;;;10.32;57.98;97905.64;67538;1282;1016379;-71
2024/01/01 04:41:13;;;;;;;;;;;;;;;10.35;58.66;97900.20;67526;1282;1016851;-72
2024/01/01 04:44:18;;;;;;;;;;;;;;;10.16;58.17;97892.97;67564;1282;1016349;-60
2024/01/01 04:47:22;;;;;;;;;;;;;;;10.21;58.17;97889.14;67521;1282;1016357;-59
2024/01/01 04:50:25;;;;;;;;;;;;;;;10.42;58.19;97888.19;67526;1282;1016435;-65
2024/01/01 04:53:27;;;;;;;;;;;;;;;10.50;57.98;97884.75;67524;1282;1016229;-59
2024/01/01 04:56:30;;;;;;;;;;;;;;;10.57;57.44;97880.88;67557;1282;1016535;-60
2024/01/01 04:59:33;;;;;;;;;;;;;;;10.62;57.24;97875.95;67454;1282;1016303;-59
2024/01/01 05:02:35;;;;;;;;;;;;;;;10.65;57.05;97861.27;67527;1282;1016434;-60
2024/01/01 05:05:38;;;;;;;;;;;;;;;10.55;57.14;97856.27;67572;1282;1016359;-71
2024/01/01 05:08:41;;;;;;;;;;;;;;;10.54;57.20;97856.80;67519;1282;1016464;-71
2024/01/01 05:11:44;;;;;;;;;;;;;;;10.65;57.85;97863.34;67550;1282;1016413;-63
2024/01/01 05:14:46;;;;;;;;;;;;;;;10.80;57.38;97861.86;67566;1282;1016114;-60
2024/01/01 05:17:49;;;;;;;;;;;;;;;10.84;57.34;97866.98;67495;1282;1016319;-59
2024/01/01 05:20:52;;;;;;;;;;;;;;;10.84;57.40;97859.81;67549;1282;1016551;-71
2024/01/01 05:23:54;;;;;;;;;;;;;;;10.82;57.15;97854.36;67582;1282;1016419;-60
2024/01/01 05:26:57;;;;;;;;;;;;;;;10.79;56.42;97858.42;67507;1282;1016473;-59
2024/01/01 05:30:00;;;;;;;;;;;;;;;10.75;56.79;97858.05;67569;1282;1016384;-71
2024/01/01 05:33:02;;;;;;;;;;;;;;;10.98;56.20;97857.51;67574;1282;1016486;-71
2024/01/01 05:36:05;;;;;;;;;;;;;;;10.88;56.10;97849.70;67461;1282;1016253;-60
2024/01/01 05:39:08;;;;;;;;;;;;;;;10.48;56.78;97845.20;67577;1282;1016618;-60
2024/01/01 05:42:10;;;;;;;;;;;;;;;10.33;57.57;97842.63;67566;1282;1016440;-71
2024/01/01 05:45:13;;;;;;;;;;;;;;;10.34;57.59;97838.38;67508;1282;1016424;-68
2024/01/01 05:48:16;;;;;;;;;;;;;;;10.41;57.71;97839.09;67510;1282;1016382;-72
2024/01/01 05:51:18;;;;;;;;;;;;;;;10.68;57.83;97852.24;67558;1282;1016483;-60
2024/01/01 05:54:21;;;;;;;;;;;;;;;10.73;57.70;97865.67;67522;1282;1016406;-60
2024/01/01 05:57:24;;;;;;;;;;;;;;;10.75;58.21;97870.11;67579;1282;1016427;-60
2024/01/01 06:00:29;;;;;;;;;;;;;;;10.80;58.62;97870.90;67521;1282;1016349;-71
2024/01/01 06:03:32;;;;;;;;;;;;;;;10.96;58.41;97865.85;67545;1282;1016536;-70
2024/01/01 06:06:35;;;;;;;;;;;;;;;11.01;58.43;97862.33;67586;1282;1018108;-60
2024/01/01 06:09:38;;;;;;;;;;;;;;;11.08;59.02;97856.00;67543;1282;1016462;-71
2024/01/01 06:12:41;;;;;;;;;;;;;;;11.17;58.46;97858.82;67518;1282;1016423;-72
2024/01/01 06:15:44;;;;;;;;;;;;;;;11.34;57.96;97860.05;67567;1282;1017087;-62
2024/01/01 06:18:46;;;;;;;;;;;;;;;11.49;58.08;97864.35;67524;1282;1016471;-71
2024/01/01 06:21:49;;;;;;;;;;;;;;;11.50;58.04;97863.38;67523;1282;1016417;-60
2024/01/01 06:24:52;;;;;;;;;;;;;;;11.53;58.35;97867.51;67554;1282;1016498;-72
2024/01/01 06:27:55;;;;;;;;;;;;;;;11.57;57.96;97867.69;67540;1282;1016568;-60
2024/01/01 06:30:57;;;;;;;;;;;;;;;11.36;57.94;97870.41;67533;1282;1016492;-60
2024/01/01 06:34:01;;;;;;;;;;;;;;;11.17;58.49;97867.42;67554;1280;1016402;-72
2024/01/01 06:37:04;;;;;;;;;;;;;;;11.00;58.85;97871.51;67558;1282;1016390;-71
2024/01/01 06:40:07;;;;;;;;;;;;;;;11.02;58.86;97869.05;67507;1282;1016123;-71
2024/01/01 06:43:10;;;;;;;;;;;;;;;11.12;58.61;97866.38;67524;1282;1016608;-71
2024/01/01 06:46:12;;;;;;;;;;;;;;;11.21;58.74;97862.72;67590;1282;1016501;-72
2024/01/01 06:49:15;;;;;;;;;;;;;;;11.32;58.74;97860.80;67584;1282;1017403;-71
2024/01/01 06:52:18;;;;;;;;;;;;;;;11.39;58.50;97870.68;67518;1282;1016383;-71
2024/01/01 06:55:22;;;;;;;;;;;;;;;11.47;58.42;97877.31;67565;1282;1016390;-72
2024/01/01 06:58:24;;;;;;;;;;;;;;;11.26;58.82;97885.70;67594;1282;1016448;-69
2024/01/01 07:01:28;;;;;;;;;;;;;;;11.06;59.03;97886.59;67541;1282;1016670;-72
2024/01/01 07:04:31;;;;;;;;;;;;;;;10.89;60.05;97883.91;67552;1282;1016448;-71
2024/01/01 07:07:34;;;;;;;;;;;;;;;10.79;60.91;97881.30;67530;1282;1016197;-67
2024/01/01 07:10:36;;;;;;;;;;;;;;;10.77;61.08;97882.55;67591;1282;1016501;-71
2024/01/01 07:13:39;;;;;;;;;;;;;;;10.70;62.33;97879.02;67578;1282;1015969;-72
2024/01/01 07:16:42;;;;;;;;;;;;;;;10.65;62.98;97875.56;67550;1282;1016508;-71
2024/01/01 07:19:44;;;;;;;;;;;;;;;10.60;63.88;97881.52;67580;1282;1016493;-67
2024/01/01 07:22:48;;;;;;;;;;;;;;;10.60;63.84;97884.75;67521;1282;1016364;-67
2024/01/01 07:25:50;;;;;;;;;;;;;;;10.56;64.06;97889.57;67574;1282;1016438;-71
2024/01/01 07:28:53;;;;;;;;;;;;;;;10.59;64.41;97888.95;67543;1282;1016075;-71
2024/01/01 07:31:56;;;;;;;;;;;;;;;10.57;64.23;97882.82;67553;1282;1016065;-69
2024/01/01 07:34:59;;;;;;;;;;;;;;;10.51;64.70;97887.44;67589;1282;1016458;-71
2024/01/01 07:38:03;;;;;;;;;;;;;;;10.50;65.01;97883.17;67570;1282;1016370;-71
2024/01/01 07:41:05;;;;;;;;;;;;;;;10.53;64.78;97881.17;67517;1282;1016317;-72
2024/01/01 07:44:09;;;;;;;;;;;;;;;10.58;64.39;97875.55;67579;1282;1016399;-68
2024/01/01 07:47:12;;;;;;;;;;;;;;;10.60;64.74;97866.35;67552;1282;1018685;-64
2024/01/01 07:50:15;;;;;;;;;;;;;;;10.60;65.00;97869.83;67579;1282;1016419;-71
2024/01/01 07:53:17;;;;;;;;;;;;;;;10.58;64.70;97866.16;67514;1282;1016398;-71
2024/01/01 07:56:20;;;;;;;;;;;;;;;10.57;65.43;97865.46;67532;1282;1018122;-71
2024/01/01 07:59:23;;;;;;;;;;;;;;;10.60;65.42;97863.20;67561;1282;1016142;-72
2024/01/01 08:02:25;;;;;;;;;;;;;;;10.71;64.64;97856.90;67594;1282;1016433;-69
2024/01/01 08:05:28;;;;;;;;;;;;;;;10.88;64.07;97858.63;67544;1282;1016323;-72
2024/01/01 08:08:31;;;;;;;;;;;;;;;11.03;63.51;97856.74;67575;1282;1016581;-64
2024/01/01 08:11:34;;;;;;;;;;;;;;;11.15;63.32;97849.14;67549;1282;1016245;-70
2024/01/01 08:14:37;;;;;;;;;;;;;;;11.09;64.02;97846.80;67530;1282;1016207;-71
2024/01/01 08:17:40;;;;;;;;;;;;;;;11.30;63.07;97840.94;67544;1282;1016581;-72
2024/01/01 08:20:43;;;;;;;;;;;;;;;11.39;62.58;97839.95;67542;1282;1016446;-72
2024/01/01 08:23:46;;;;;;;;;;;;;;;11.35;62.74;97833.41;67562;1282;1016265;-71
2024/01/01 08:26:49;;;;;;;;;;;;;;;11.46;62.42;97835.35;67562;1282;1016256;-60
2024/01/01 08:29:51;;;;;;;;;;;;;;;11.49;62.39;97828.96;67589;1282;1016203;-72
2024/01/01 08:32:54;;;;;;;;;;;;;;;11.44;62.82;97823.40;67546;1282;1016432;-69
2024/01/01 08:35:57;;;;;;;;;;;;;;;11.51;62.58;97824.45;67570;1282;1016287;-72
2024/01/01 08:38:59;;;;;;;;;;;;;;;11.54;62.53;97825.61;67590;1282;1016361;-72
2024/01/01 08:42:02;;;;;;;;;;;;;;;11.53;62.67;97819.76;67537;1282;1016479;-72
2024/01/01 08:45:05;;;;;;;;;;;;;;;11.53;62.74;97813.41;67554;1282;1016463;-64
2024/01/01 08:48:08;;;;;;;;;;;;;;;11.47;63.05;97811.86;67574;1282;1016107;-72
2024/01/01 08:51:10;;;;;;;;;;;;;;;11.47;63.14;97814.27;67556;1282;1017784;-72
2024/01/01 08:54:16;;;;;;;;;;;;;;;11.65;62.40;97813.31;67568;1282;1016494;-72
2024/01/01 08:57:18;;;;;;;;;;;;;;;11.69;62.21;97812.86;67521;1282;1016272;-72
2024/01/01 09:00:21;;;;;;;;;;;;;;;11.73;62.17;97812.46;67563;1282;1016502;-71
2024/01/01 09:03:24;;;;;;;;;;;;;;;11.85;61.64;97822.62;67564;1282;1016485;-65
2024/01/01 09:06:27;;;;;;;;;;;;;;;11.76;61.92;97821.86;67534;1282;1016281;-72
2024/01/01 09:09:29;;;;;;;;;;;;;;;11.72;62.26;97829.53;67557;1282;1016328;-72
2024/01/01 09:12:32;;;;;;;;;;;;;;;11.49;63.33;97840.35;67533;1282;1016303;-72
2024/01/01 09:15:35;;;;;;;;;;;;;;;11.23;64.37;97849.27;67537;1282;1016478;-68
2024/01/01 09:18:37;;;;;;;;;;;;;;;11.06;65.28;97856.48;67543;1282;1016386;-71
2024/01/01 09:21:40;;;;;;;;;;;;;;;11.12;65.44;97857.27;65036;1282;5327093;-72
2024/01/01 09:24:43;;;;;;;;;;;;;;;10.95;66.57;97866.49;67546;1282;1016440;-72
2024/01/01 09:27:47;;;;;;;;;;;;;;;10.90;66.63;97867.14;67575;1282;1016357;-70
2024/01/01 09:30:58;;;;;;;;;;;;;;;10.89;67.23;97869.70;67569;1282;1016607;-72
2024/01/01 09:34:03;;;;;;;;;;;;;;;10.88;67.52;97864.40;67554;1282;1016361;-73
2024/01/01 09:37:06;;;;;;;;;;;;;;;10.91;67.94;97865.20;67596;1282;1016223;-71
2024/01/01 09:40:10;;;;;;;;;;;;;;;10.93;68.13;97861.56;67516;1282;1016184;-73
2024/01/01 09:43:13;;;;;;;;;;;;;;;10.79;69.21;97863.65;67574;1282;1016835;-73
2024/01/01 09:46:17;;;;;;;;;;;;;;;10.77;69.42;97866.13;67594;1282;1016335;-73
2024/01/01 09:49:21;;;;;;;;;;;;;;;10.71;69.59;97863.39;67585;1282;1015937;-72
2024/01/01 09:52:24;;;;;;;;;;;;;;;10.71;70.03;97860.77;67567;1282;1016419;-73
2024/01/01 09:55:27;;;;;;;;;;;;;;;10.75;69.80;97864.83;67562;1282;1018367;-72
2024/01/01 09:58:30;;;;;;;;;;;;;;;10.69;70.30;97864.19;67587;1282;1016064;-72
2024/01/01 10:01:33;;;;;;;;;;;;;;;10.74;70.39;97871.60;67554;1282;1016488;-72
2024/01/01 10:04:36;;;;;;;;;;;;;;;10.65;70.78;97875.21;67558;1282;1015862;-62
2024/01/01 10:07:39;;;;;;;;;;;;;;;10.66;70.75;97875.34;67546;1282;1016471;-72
2024/01/01 10:10:42;;;;;;;;;;;;;;;10.72;70.49;97872.60;67575;1282;1016430;-72
2024/01/01 10:13:44;;;;;;;;;;;;;;;10.66;70.53;97877.96;67551;1282;1016440;-71
2024/01/01 10:16:47;;;;;;;;;;;;;;;10.59;70.01;97888.62;67577;1282;1016332;-64
2024/01/01 10:19:50;;;;;;;;;;;;;;;10.60;69.51;97892.20;67589;1282;1016301;-61
2024/01/01 10:22:53;;;;;;;;;;;;;;;10.72;68.99;97893.41;67529;1282;1016342;-72
2024/01/01 10:25:55;;;;;;;;;;;;;;;10.71;68.61;97893.46;67558;1282;1016453;-70
2024/01/01 10:28:58;;;;;;;;;;;;;;;10.75;68.27;97898.95;67593;1282;1016301;-73
2024/01/01 10:32:01;;;;;;;;;;;;;;;10.80;67.42;97902.23;67539;1282;1016670;-73
2024/01/01 10:35:04;;;;;;;;;;;;;;;10.78;67.02;97898.69;67562;1282;1016217;-73
2024/01/01 10:38:07;;;;;;;;;;;;;;;10.60;67.39;97908.65;67559;1282;1016496;-72
2024/01/01 10:41:09;;;;;;;;;;;;;;;10.59;67.59;97906.61;67548;1282;1016405;-73
2024/01/01 10:44:12;;;;;;;;;;;;;;;10.46;67.67;97904.14;67603;1282;1016218;-73
2024/01/01 10:47:15;;;;;;;;;;;;;;;10.47;67.15;97900.02;67532;1282;1016075;-71
2024/01/01 10:50:18;;;;;;;;;;;;;;;10.48;66.54;97900.05;67572;1282;1018194;-72
2024/01/01 10:53:22;;;;;;;;;;;;;;;10.42;66.82;97890.61;67572;1282;1016226;-72
2024/01/01 10:56:25;;;;;;;;;;;;;;;10.40;67.60;97895.08;67566;1282;1016379;-72
2024/01/01 10:59:28;;;;;;;;;;;;;;;10.60;66.98;97883.34;67564;1282;1016379;-60
2024/01/01 11:02:31;;;;;;;;;;;;;;;10.56;66.82;97888.11;67518;1282;1016340;-68
2024/01/01 11:05:33;;;;;;;;;;;;;;;10.58;66.89;97877.67;67550;1282;1016153;-72
2024/01/01 11:08:36;;;;;;;;;;;;;;;10.52;66.86;97877.23;67590;1282;1016303;-60
2024/01/01 11:11:39;;;;;;;;;;;;;;;10.37;65.98;97885.20;67538;1282;1016326;-71
2024/01/01 11:14:44;;;;;;;;;;;;;;;10.22;66.25;97884.53;67573;1282;1016164;-68
2024/01/01 11:17:47;;;;;;;;;;;;;;;10.22;66.59;97871.61;67526;1282;1016226;-71
2024/01/01 11:20:50;;;;;;;;;;;;;;;10.19;66.95;97866.59;67603;1282;1016523;-70
2024/01/01 11:23:53;;;;;;;;;;;;;;;10.30;66.80;97865.25;67559;1282;1016204;-60
2024/01/01 11:26:55;;;;;;;;;;;;;;;10.30;66.58;97862.78;67562;1282;1016274;-68
2024/01/01 11:29:58;;;;;;;;;;;;;;;10.40;66.23;97861.73;67551;1282;1015814;-60
2024/01/01 11:33:01;;;;;;;;;;;;;;;10.48;65.44;97863.95;67608;1282;1016223;-72
2024/01/01 11:36:03;;;;;;;;;;;;;;;10.53;65.16;97863.02;67533;1282;1015838;-72
2024/01/01 11:39:06;;;;;;;;;;;;;;;10.47;65.23;97862.93;67572;1282;1016313;-71
2024/01/01 11:42:10;;;;;;;;;;;;;;;10.49;64.83;97863.02;67528;1282;1016681;-71
2024/01/01 11:45:12;;;;;;;;;;;;;;;10.44;64.58;97855.30;67603;1282;1016108;-67
2024/01/01 11:48:15;;;;;;;;;;;;;;;10.50;64.82;97856.25;67526;1282;1016567;-70
2024/01/01 11:51:18;;;;;;;;;;;;;;;10.39;64.89;97853.81;67561;1282;1016405;-72
2024/01/01 11:54:23;;;;;;;;;;;;;;;10.49;65.01;97854.40;67511;1282;1016412;-72
2024/01/01 11:57:25;;;;;;;;;;;;;;;10.54;64.93;97856.31;67541;1282;1016768;-67
2024/01/01 12:00:28;;;;;;;;;;;;;;;10.62;64.75;97848.70;67579;1282;1016544;-65
2024/01/01 12:03:31;;;;;;;;;;;;;;;10.72;64.37;97841.62;67547;1282;1016143;-72
2024/01/01 12:06:34;;;;;;;;;;;;;;;10.79;64.24;97844.41;67549;1282;1016407;-72
2024/01/01 12:09:36;;;;;;;;;;;;;;;10.76;64.49;97843.63;67567;1282;1016395;-71
2024/01/01 12:12:39;;;;;;;;;;;;;;;10.65;65.18;97851.41;67540;1282;1016440;-71
2024/01/01 12:15:42;;;;;;;;;;;;;;;10.58;65.75;97855.13;67582;1282;1016744;-72
2024/01/01 12:18:45;;;;;;;;;;;;;;;10.42;66.72;97855.98;67583;1282;1016495;-72
2024/01/01 12:21:48;;;;;;;;;;;;;;;10.35;66.96;97851.79;67542;1282;1016450;-69
2024/01/01 12:24:51;;;;;;;;;;;;;;;10.51;65.82;97850.05;67557;1282;1016085;-72
2024/01/01 12:27:54;;;;;;;;;;;;;;;10.32;65.93;97850.59;67592;1282;1016156;-71
2024/01/01 12:30:57;;;;;;;;;;;;;;;10.41;65.57;97846.42;67591;1282;1016434;-61
2024/01/01 12:33:59;;;;;;;;;;;;;;;10.43;65.75;97843.88;67544;1282;1016424;-60
2024/01/01 12:37:02;;;;;;;;;;;;;;;10.41;65.25;97845.02;67580;1282;1016488;-72
2024/01/01 12:40:05;;;;;;;;;;;;;;;10.39;65.47;97844.53;67590;1282;1016460;-72
2024/01/01 12:43:08;;;;;;;;;;;;;;;10.34;65.46;97844.34;67577;1282;1016398;-71
2024/01/01 12:46:10;;;;;;;;;;;;;;;10.33;65.07;97844.75;67572;1282;1016782;-72
2024/01/01 12:49:13;;;;;;;;;;;;;;;10.25;65.46;97844.26;67597;1282;1016260;-71
2024/01/01 12:52:16;;;;;;;;;;;;;;;10.34;65.08;97842.39;67563;1282;1018178;-67
2024/01/01 12:55:18;;;;;;;;;;;;;;;10.46;65.17;97841.57;67608;1282;1016337;-72
2024/01/01 12:58:21;;;;;;;;;;;;;;;10.55;64.64;97841.02;67595;1282;1016462;-72
2024/01/01 13:01:24;;;;;;;;;;;;;;;10.61;64.77;97836.20;67543;1282;1016656;-71
2024/01/01 13:04:28;;;;;;;;;;;;;;;10.55;65.10;97836.67;67595;1282;1016253;-61
2024/01/01 13:07:31;;;;;;;;;;;;;;;10.43;65.59;97832.70;67574;1282;1016359;-69
2024/01/01 13:10:37;;;;;;;;;;;;;;;10.48;65.45;97828.60;67583;1282;1016251;-71
2024/01/01 13:13:40;;;;;;;;;;;;;;;10.61;65.08;97829.19;67570;1282;1016401;-72
2024/01/01 13:16:44;;;;;;;;;;;;;;;10.42;66.11;97827.14;67587;1282;1016459;-72
2024/01/01 13:19:47;;;;;;;;;;;;;;;10.39;66.87;97826.34;67596;1282;1016370;-61
2024/01/01 13:22:50;;;;;;;;;;;;;;;10.37;66.94;97830.33;67523;1282;1016489;-72
2024/01/01 13:25:52;;;;;;;;;;;;;;;10.49;66.73;97830.50;67594;1282;1016716;-71
2024/01/01 13:28:55;;;;;;;;;;;;;;;10.52;66.79;97833.23;67572;1282;1015994;-72
2024/01/01 13:31:58;;;;;;;;;;;;;;;10.52;67.02;97835.48;67548;1282;1017901;-66
2024/01/01 13:35:01;;;;;;;;;;;;;;;10.47;67.62;97829.56;67599;1282;1016427;-72
2024/01/01 13:38:03;;;;;;;;;;;;;;;10.50;67.66;97828.09;67566;1282;1016008;-72
2024/01/01 13:41:06;;;;;;;;;;;;;;;10.61;67.38;97836.88;67542;1282;1016178;-67
2024/01/01 13:44:09;;;;;;;;;;;;;;;10.58;67.81;97841.35;67594;1282;1016134;-72
2024/01/01 13:47:11;;;;;;;;;;;;;;;10.57;67.77;97835.42;67583;1282;1016466;-72
2024/01/01 13:50:15;;;;;;;;;;;;;;;10.57;68.14;97837.17;67597;1282;1018785;-72
2024/01/01 13:53:17;;;;;;;;;;;;;;;10.59;68.10;97838.42;67603;1282;1016245;-59
2024/01/01 13:56:21;;;;;;;;;;;;;;;10.67;67.69;97839.09;67551;1282;1016179;-72
2024/01/01 13:59:24;;;;;;;;;;;;;;;10.66;68.35;97841.63;67580;1282;1016606;-72
2024/01/01 14:02:27;;;;;;;;;;;;;;;10.59;68.87;97846.64;67551;1282;1016261;-68
2024/01/01 14:05:30;;;;;;;;;;;;;;;10.60;69.22;97843.80;67604;1282;1016450;-71
2024/01/01 14:08:33;;;;;;;;;;;;;;;10.62;69.21;97848.73;67544;1282;1016565;-72
2024/01/01 14:11:36;;;;;;;;;;;;;;;10.56;69.73;97848.98;67585;1282;1016424;-72
2024/01/01 14:14:39;;;;;;;;;;;;;;;10.61;69.74;97851.91;67546;1282;1016560;-68
2024/01/01 14:17:41;;;;;;;;;;;;;;;10.78;68.79;97854.81;67559;1282;1016446;-72
2024/01/01 14:20:44;;;;;;;;;;;;;;;10.83;68.56;97854.12;67601;1282;1016478;-72
2024/01/01 14:23:47;;;;;;;;;;;;;;;10.76;69.34;97853.95;67571;1282;1016466;-72
2024/01/01 14:26:51;;;;;;;;;;;;;;;10.69;69.87;97860.05;67604;1282;1015954;-60
2024/01/01 14:29:55;;;;;;;;;;;;;;;10.75;69.65;97858.22;67587;1282;1016459;-71
2024/01/01 14:32:59;;;;;;;;;;;;;;;10.78;69.55;97860.91;67584;1282;1016359;-61
2024/01/01 14:36:03;;;;;;;;;;;;;;;10.84;69.45;97861.52;67582;1282;1015940;-72
2024/01/01 14:39:08;;;;;;;;;;;;;;;10.99;68.89;97862.99;67539;1282;1016316;-72
2024/01/01 14:42:11;;;;;;;;;;;;;;;11.00;68.71;97862.04;67549;1282;1016435;-72
2024/01/01 14:45:14;;;;;;;;;;;;;;;10.98;69.20;97867.08;67597;1282;1016496;-71
2024/01/01 14:48:16;;;;;;;;;;;;;;;11.02;69.00;97865.95;67588;1282;1016156;-72
2024/01/01 14:51:20;;;;;;;;;;;;;;;11.01;69.34;97866.36;67594;1282;1016051;-71
2024/01/01 14:54:22;;;;;;;;;;;;;;;11.16;68.70;97863.83;67595;1282;1016392;-71
2024/01/01 14:57:25;;;;;;;;;;;;;;;11.04;69.23;97860.67;67547;1282;1016882;-72
2024/01/01 15:00:28;;;;;;;;;;;;;;;11.03;69.62;97857.96;67581;1282;1016490;-68
2024/01/01 15:03:30;;;;;;;;;;;;;;;11.15;68.94;97865.25;67601;1282;1016490;-72
2024/01/01 15:06:33;;;;;;;;;;;;;;;11.18;68.88;97864.16;67540;1282;1016285;-72
2024/01/01 15:09:37;;;;;;;;;;;;;;;11.09;69.73;97866.56;67589;1282;1016705;-72
2024/01/01 15:12:40;;;;;;;;;;;;;;;11.10;69.72;97866.16;67571;1282;1016157;-71
2024/01/01 15:15:42;;;;;;;;;;;;;;;11.18;69.63;97871.33;67592;1282;1016490;-72
2024/01/01 15:18:45;;;;;;;;;;;;;;;11.23;69.64;97874.40;67569;1282;1016217;-71
2024/01/01 15:21:48;;;;;;;;;;;;;;;11.30;69.44;97872.48;67547;1282;1016346;-65
2024/01/01 15:24:52;;;;;;;;;;;;;;;11.35;68.95;97872.05;67620;1282;1016301;-71
2024/01/01 15:27:55;;;;;;;;;;;;;;;11.46;68.63;97871.86;67574;1282;1016541;-72